Time;durP1;ratioP1;P1;durP2;ratioP2;P2;SDS_P1;SDS_P2;PMS_P1;PMS_P2;Temp;Humidity;BMP_temperature;BMP_pressure;BME280_temperature;BME280_humidity;BME280_pressure;Samples;Min_cycle;Max_cycle;Signal;HPM_P1;HPM_P2
2022/01/10 00:00:21;;;;;;;2.80;1.15;;;17.80;56.80;;;;;;4995221;28;20034;-70
2022/01/10 00:02:48;;;;;;;2.45;1.08;;;17.80;56.80;;;;;;5001168;28;20027;-68
2022/01/10 00:05:13;;;;;;;2.13;1.02;;;17.90;56.90;;;;;;4997566;28;20026;-69
2022/01/10 00:07:39;;;;;;;1.77;0.90;;;17.90;56.90;;;;;;5009039;28;20041;-68
2022/01/10 00:10:06;;;;;;;2.05;1.02;;;17.90;56.80;;;;;;4990263;28;20106;-68
2022/01/10 00:12:31;;;;;;;1.17;0.82;;;17.90;56.80;;;;;;5000965;28;20022;-68
2022/01/10 00:14:57;;;;;;;1.27;0.95;;;17.90;56.80;;;;;;4990993;28;20025;-68
2022/01/10 00:17:22;;;;;;;3.00;1.63;;;17.90;56.70;;;;;;4999477;28;20034;-68
2022/01/10 00:19:48;;;;;;;1.60;0.90;;;17.90;56.70;;;;;;4994962;28;20445;-67
2022/01/10 00:22:13;;;;;;;1.95;1.10;;;17.90;56.60;;;;;;4997624;28;20030;-67
2022/01/10 00:24:39;;;;;;;2.17;1.00;;;17.90;56.60;;;;;;5008980;28;20029;-68
2022/01/10 00:27:04;;;;;;;2.20;1.13;;;17.90;56.50;;;;;;5006482;28;20038;-68
2022/01/10 00:29:30;;;;;;;2.22;1.15;;;17.90;56.50;;;;;;4999516;28;20084;-68
2022/01/10 00:31:57;;;;;;;4.07;1.10;;;17.90;56.40;;;;;;5004118;28;20034;-68
2022/01/10 00:34:23;;;;;;;2.53;1.10;;;17.90;56.40;;;;;;5008562;28;20030;-68
2022/01/10 00:36:49;;;;;;;1.65;0.82;;;17.90;56.30;;;;;;4994136;28;20060;-68
2022/01/10 00:39:14;;;;;;;1.77;0.95;;;18.00;56.30;;;;;;5004091;28;20484;-67
2022/01/10 00:41:41;;;;;;;2.03;1.05;;;18.00;56.20;;;;;;4998691;28;20034;-68
2022/01/10 00:44:08;;;;;;;2.95;1.40;;;18.00;56.10;;;;;;5011885;28;20077;-69
2022/01/10 00:46:34;;;;;;;1.35;0.82;;;18.00;56.00;;;;;;5002267;28;20037;-68
2022/01/10 00:48:59;;;;;;;2.50;1.00;;;18.10;55.90;;;;;;5007493;28;20572;-67
2022/01/10 00:51:25;;;;;;;1.38;0.98;;;18.00;55.70;;;;;;4982361;28;20712;-67
2022/01/10 00:53:52;;;;;;;1.00;0.82;;;18.00;55.70;;;;;;4994137;28;20034;-67
2022/01/10 00:56:18;;;;;;;2.05;1.00;;;18.10;55.60;;;;;;4996367;28;20041;-67
2022/01/10 00:58:43;;;;;;;3.38;1.15;;;18.10;55.40;;;;;;4995691;28;20034;-67
2022/01/10 01:01:09;;;;;;;1.50;0.88;;;18.10;55.30;;;;;;4992041;28;20705;-67
2022/01/10 01:03:34;;;;;;;3.17;1.33;;;18.10;55.20;;;;;;5007505;28;20022;-68
2022/01/10 01:06:00;;;;;;;2.05;0.90;;;18.10;55.20;;;;;;4995681;28;20022;-68
2022/01/10 01:08:31;;;;;;;3.08;1.10;;;18.10;55.10;;;;;;5000583;28;20038;-67
2022/01/10 01:11:18;;;;;;;1.52;1.10;;;18.10;55.00;;;;;;5005515;28;20621;-68
2022/01/10 01:13:54;;;;;;;2.13;1.00;;;18.10;56.00;;;;;;4994611;28;20041;-68
2022/01/10 01:24:28;;;;;;;2.28;0.90;;;18.00;55.90;;;;;;5002844;28;20456;-67
2022/01/10 01:26:54;;;;;;;1.95;0.95;;;18.00;55.90;;;;;;4994192;28;20097;-68
2022/01/10 01:29:23;;;;;;;1.90;1.00;;;18.00;55.90;;;;;;5000388;28;20058;-67
2022/01/10 01:31:49;;;;;;;1.85;0.90;;;18.00;55.90;;;;;;4995052;28;20049;-67
2022/01/10 01:34:15;;;;;;;2.20;1.27;;;18.00;55.90;;;;;;4995115;28;20026;-67
2022/01/10 01:36:46;;;;;;;1.75;0.70;;;18.00;55.90;;;;;;4984821;28;20046;-67
2022/01/10 01:39:45;;;;;;;2.35;1.13;;;18.00;55.90;;;;;;4999549;28;20027;-67
2022/01/10 01:42:17;;;;;;;1.98;0.93;;;18.00;55.90;;;;;;4989058;28;20117;-68
2022/01/10 01:44:42;;;;;;;2.28;1.10;;;18.00;55.80;;;;;;4993887;28;20044;-67
2022/01/10 01:47:08;;;;;;;1.27;1.00;;;18.00;55.70;;;;;;4988481;28;20108;-68
2022/01/10 01:49:33;;;;;;;2.63;1.00;;;18.00;55.70;;;;;;4998176;28;20026;-63
2022/01/10 01:51:59;;;;;;;1.35;1.10;;;18.00;55.60;;;;;;4980585;28;20046;-66
2022/01/10 01:54:24;;;;;;;2.92;0.90;;;18.00;55.60;;;;;;5001406;28;20029;-68
2022/01/10 01:56:50;;;;;;;2.42;1.13;;;18.00;55.50;;;;;;4998822;28;20093;-68
2022/01/10 01:59:16;;;;;;;1.83;1.13;;;18.00;55.40;;;;;;4979624;28;20034;-68
2022/01/10 02:01:42;;;;;;;1.33;0.90;;;18.00;55.30;;;;;;5000399;28;20456;-68
2022/01/10 02:04:07;;;;;;;3.65;1.23;;;18.00;55.30;;;;;;4977831;28;20058;-68
2022/01/10 02:06:33;;;;;;;1.52;0.85;;;18.00;55.10;;;;;;4993207;28;20038;-67
2022/01/10 02:08:58;;;;;;;1.13;0.95;;;18.00;55.10;;;;;;4999066;28;20101;-68
2022/01/10 02:11:24;;;;;;;2.42;0.98;;;18.00;55.00;;;;;;4995646;28;20085;-68
2022/01/10 02:13:49;;;;;;;1.63;0.93;;;18.00;54.90;;;;;;4993922;28;20037;-67
2022/01/10 02:16:20;;;;;;;1.45;0.85;;;18.00;54.80;;;;;;5006367;28;20037;-67
2022/01/10 02:18:46;;;;;;;1.63;0.95;;;18.00;54.70;;;;;;4991956;28;20085;-68
2022/01/10 02:21:13;;;;;;;1.67;1.13;;;18.00;54.70;;;;;;4997187;28;20038;-67
2022/01/10 02:23:39;;;;;;;1.48;1.13;;;18.00;54.60;;;;;;4989066;28;20037;-66
2022/01/10 02:26:04;;;;;;;2.03;1.10;;;18.10;54.60;;;;;;4997837;28;20041;-67
2022/01/10 02:28:31;;;;;;;2.85;1.50;;;18.00;54.50;;;;;;4991409;28;20033;-68
2022/01/10 02:30:58;;;;;;;1.50;0.90;;;18.00;54.50;;;;;;5006278;28;20065;-67
2022/01/10 02:33:28;;;;;;;2.40;1.35;;;18.00;54.50;;;;;;5004502;28;20112;-68
2022/01/10 02:38:19;;;;;;;1.50;1.00;;;18.00;54.60;;;;;;4988731;28;20037;-67
2022/01/10 02:40:46;;;;;;;1.65;0.90;;;18.00;54.60;;;;;;4985953;28;20042;-68
2022/01/10 02:43:12;;;;;;;1.50;1.13;;;17.90;54.60;;;;;;4987526;28;20030;-67
2022/01/10 02:45:37;;;;;;;1.67;0.88;;;17.90;54.60;;;;;;4999541;28;20042;-68
2022/01/10 02:48:03;;;;;;;2.55;1.40;;;17.90;54.50;;;;;;4994801;28;20019;-67
2022/01/10 02:50:28;;;;;;;1.35;0.90;;;17.90;54.50;;;;;;5000656;28;20048;-68
2022/01/10 02:52:54;;;;;;;2.88;1.15;;;17.90;54.50;;;;;;4999396;28;20034;-68
2022/01/10 02:55:19;;;;;;;1.25;1.13;;;17.80;54.50;;;;;;5002963;28;20297;-68
2022/01/10 02:57:45;;;;;;;2.85;1.17;;;17.80;54.50;;;;;;4987954;28;20039;-68
2022/01/10 03:00:15;;;;;;;1.85;1.13;;;17.80;54.60;;;;;;4999786;28;20041;-68
2022/01/10 03:02:42;;;;;;;1.70;1.00;;;17.80;54.50;;;;;;5005449;28;20073;-68
2022/01/10 03:05:08;;;;;;;2.67;1.15;;;17.80;54.60;;;;;;5000814;28;20525;-68
2022/01/10 03:07:34;;;;;;;1.58;0.98;;;17.80;54.60;;;;;;4993308;28;20038;-67
2022/01/10 03:09:59;;;;;;;2.72;1.05;;;17.70;54.60;;;;;;4996823;28;20496;-67
2022/01/10 03:12:25;;;;;;;2.78;1.20;;;17.70;54.70;;;;;;4998622;28;20544;-67
2022/01/10 03:14:50;;;;;;;1.88;0.95;;;17.70;54.70;;;;;;4990573;28;20461;-67
2022/01/10 03:17:16;;;;;;;1.88;1.10;;;17.70;54.80;;;;;;4984111;28;20058;-68
2022/01/10 03:19:41;;;;;;;2.03;0.95;;;17.70;55.00;;;;;;4982943;28;20464;-63
2022/01/10 03:22:07;;;;;;;1.30;1.00;;;17.60;55.20;;;;;;4990780;28;20033;-68
2022/01/10 03:24:33;;;;;;;1.95;1.10;;;17.60;55.30;;;;;;4985842;28;20824;-67
2022/01/10 03:26:58;;;;;;;1.30;0.90;;;17.60;55.40;;;;;;4991551;28;20284;-67
2022/01/10 03:29:24;;;;;;;1.85;1.00;;;17.60;55.50;;;;;;4989933;28;20041;-68
2022/01/10 03:31:49;;;;;;;2.45;1.20;;;17.60;55.50;;;;;;4990788;28;20493;-67
2022/01/10 03:34:15;;;;;;;1.45;1.10;;;17.60;55.50;;;;;;4984184;28;20038;-67
2022/01/10 03:36:41;;;;;;;1.10;1.00;;;17.60;55.50;;;;;;4998461;28;20034;-68
2022/01/10 03:39:07;;;;;;;1.73;1.05;;;17.60;55.50;;;;;;4992863;28;20057;-68
2022/01/10 03:41:33;;;;;;;2.25;0.85;;;17.60;55.50;;;;;;4998445;28;20042;-68
2022/01/10 03:43:58;;;;;;;2.75;1.20;;;17.70;55.40;;;;;;4990023;28;20085;-68
2022/01/10 03:46:24;;;;;;;2.13;1.10;;;17.70;55.30;;;;;;5002124;28;20493;-66
2022/01/10 03:48:49;;;;;;;2.20;1.05;;;17.70;55.20;;;;;;4992115;28;20034;-66
2022/01/10 03:51:15;;;;;;;1.40;0.90;;;17.80;55.00;;;;;;4991207;28;20054;-67
2022/01/10 03:53:40;;;;;;;1.40;1.10;;;17.80;55.00;;;;;;4998476;28;20022;-68
2022/01/10 03:56:06;;;;;;;1.83;1.00;;;17.80;55.10;;;;;;5000960;28;20062;-68
2022/01/10 03:58:31;;;;;;;1.55;0.80;;;17.80;55.10;;;;;;4995891;28;20106;-68
2022/01/10 04:00:57;;;;;;;1.55;1.08;;;17.80;55.10;;;;;;5010943;28;20033;-68
2022/01/10 04:03:23;;;;;;;3.15;1.25;;;17.80;55.10;;;;;;5002598;28;20574;-68
2022/01/10 04:05:49;;;;;;;1.50;1.10;;;17.80;55.10;;;;;;5001191;28;20049;-67
2022/01/10 04:08:14;;;;;;;2.13;0.80;;;17.90;55.10;;;;;;5000433;28;20022;-67
2022/01/10 04:10:40;;;;;;;1.23;0.75;;;17.90;55.20;;;;;;4989829;28;20034;-68
2022/01/10 04:13:05;;;;;;;1.35;0.90;;;17.90;55.20;;;;;;5003531;28;20030;-68
2022/01/10 04:15:31;;;;;;;2.65;1.08;;;17.90;55.10;;;;;;4994895;28;20026;-68
2022/01/10 04:17:59;;;;;;;2.03;1.10;;;17.90;55.10;;;;;;4999795;28;20034;-65
2022/01/10 04:20:24;;;;;;;2.25;0.98;;;18.00;55.10;;;;;;4989766;28;20078;-68
2022/01/10 04:22:50;;;;;;;1.58;0.85;;;18.00;55.10;;;;;;5002514;28;20030;-66
2022/01/10 04:25:16;;;;;;;2.67;1.02;;;18.00;55.80;;;;;;4999323;28;20022;-67
2022/01/10 04:27:41;;;;;;;2.15;1.00;;;18.00;55.10;;;;;;5011583;28;20041;-67
2022/01/10 04:30:07;;;;;;;2.00;0.93;;;18.00;55.10;;;;;;5000036;28;20037;-68
2022/01/10 04:32:33;;;;;;;2.03;1.10;;;18.00;55.10;;;;;;5005149;28;20029;-68
2022/01/10 04:34:59;;;;;;;2.50;0.93;;;18.00;55.10;;;;;;4993128;28;20034;-68
2022/01/10 04:37:24;;;;;;;1.52;0.90;;;18.00;55.00;;;;;;4996819;28;20034;-68
2022/01/10 04:39:50;;;;;;;1.88;1.08;;;18.00;54.90;;;;;;4984331;28;20460;-68
2022/01/10 04:42:15;;;;;;;1.88;1.30;;;18.00;54.90;;;;;;4992678;28;20497;-68
2022/01/10 04:44:41;;;;;;;2.10;0.90;;;18.00;54.80;;;;;;5002440;28;20029;-68
2022/01/10 04:47:07;;;;;;;1.95;0.80;;;18.00;54.60;;;;;;5004960;28;20042;-67
2022/01/10 04:49:53;;;;;;;1.60;1.10;;;18.00;54.50;;;;;;5000835;28;20037;-68
2022/01/10 04:52:18;;;;;;;2.15;1.33;;;18.00;54.40;;;;;;4993425;28;20512;-66
2022/01/10 04:54:43;;;;;;;3.15;1.00;;;18.10;54.30;;;;;;5007731;28;20045;-67
2022/01/10 04:57:09;;;;;;;1.80;1.27;;;18.10;54.20;;;;;;5004399;28;20045;-67
2022/01/10 04:59:34;;;;;;;2.53;1.15;;;18.10;54.20;;;;;;5007714;28;20504;-67
2022/01/10 05:02:00;;;;;;;2.53;1.00;;;18.10;54.20;;;;;;5010052;28;20029;-67
2022/01/10 05:04:25;;;;;;;2.90;1.10;;;18.00;54.20;;;;;;5003674;28;20040;-67
2022/01/10 05:06:51;;;;;;;3.63;1.65;;;18.00;54.40;;;;;;4998388;28;20044;-67
2022/01/10 05:09:16;;;;;;;2.05;1.00;;;18.00;54.50;;;;;;5005133;28;20053;-67
2022/01/10 05:11:42;;;;;;;1.75;1.05;;;18.00;55.20;;;;;;4999230;28;20023;-67
2022/01/10 05:14:08;;;;;;;3.75;1.20;;;18.00;54.60;;;;;;5001935;28;20046;-67
2022/01/10 05:16:33;;;;;;;1.48;1.05;;;18.00;54.70;;;;;;4989224;28;20666;-67
2022/01/10 05:18:59;;;;;;;2.47;1.48;;;18.00;54.70;;;;;;5001293;28;20022;-65
2022/01/10 05:21:24;;;;;;;2.10;0.90;;;18.00;54.70;;;;;;4990365;28;20041;-67
2022/01/10 05:23:50;;;;;;;1.63;0.85;;;18.00;54.80;;;;;;4993281;28;20057;-67
2022/01/10 05:26:15;;;;;;;1.70;1.02;;;18.00;54.80;;;;;;4997782;28;20241;-68
2022/01/10 05:28:41;;;;;;;2.08;1.05;;;18.00;54.90;;;;;;4997423;28;20030;-68
2022/01/10 05:31:06;;;;;;;1.88;0.93;;;17.90;54.90;;;;;;5001755;28;20417;-68
2022/01/10 05:33:32;;;;;;;2.38;1.00;;;17.90;54.90;;;;;;5000077;28;20042;-68
2022/01/10 05:35:57;;;;;;;1.83;1.05;;;17.90;54.90;;;;;;4989453;28;20030;-68
2022/01/10 05:38:23;;;;;;;2.15;1.10;;;17.90;54.90;;;;;;5003951;28;20413;-67
2022/01/10 05:40:48;;;;;;;1.55;0.93;;;17.90;54.90;;;;;;4993395;28;20109;-68
2022/01/10 05:43:14;;;;;;;1.65;0.95;;;17.90;54.90;;;;;;5000083;28;20030;-68
2022/01/10 05:45:43;;;;;;;2.15;1.02;;;17.90;54.90;;;;;;4995324;28;20034;-67
2022/01/10 05:48:12;;;;;;;2.60;1.08;;;17.90;54.80;;;;;;5002310;28;20026;-67
2022/01/10 05:50:40;;;;;;;2.08;1.00;;;17.90;54.70;;;;;;4994008;28;20030;-68
2022/01/10 05:53:06;;;;;;;2.55;1.08;;;17.90;54.70;;;;;;4998305;28;20088;-68
2022/01/10 05:55:31;;;;;;;2.03;1.10;;;17.90;54.60;;;;;;4999244;28;20031;-68
2022/01/10 05:57:57;;;;;;;3.78;1.17;;;17.90;54.50;;;;;;4995498;28;20673;-68
2022/01/10 06:00:22;;;;;;;3.42;1.23;;;17.90;54.40;;;;;;4995217;28;20030;-67
2022/01/10 06:02:48;;;;;;;2.17;1.05;;;18.00;54.40;;;;;;4986311;28;20031;-67
2022/01/10 06:05:13;;;;;;;1.88;1.00;;;18.00;54.30;;;;;;4994472;28;20080;-68
2022/01/10 06:07:39;;;;;;;1.30;1.20;;;18.00;54.20;;;;;;4991005;28;20042;-69
2022/01/10 06:10:05;;;;;;;2.47;1.17;;;18.00;54.10;;;;;;4997880;28;20032;-67
2022/01/10 06:12:30;;;;;;;3.03;1.35;;;18.00;54.00;;;;;;4995425;28;20030;-69
2022/01/10 06:14:56;;;;;;;2.42;1.35;;;18.00;53.90;;;;;;5006286;28;20034;-68
2022/01/10 06:17:21;;;;;;;2.50;1.10;;;18.00;53.80;;;;;;4985468;28;20426;-68
2022/01/10 06:19:47;;;;;;;2.70;1.33;;;18.00;53.80;;;;;;4994494;28;20594;-66
2022/01/10 06:22:12;;;;;;;2.78;1.27;;;18.00;53.90;;;;;;4996220;28;20030;-67
2022/01/10 06:24:38;;;;;;;2.08;1.23;;;18.00;54.00;;;;;;5000100;28;20046;-68
2022/01/10 06:27:04;;;;;;;3.28;1.58;;;18.00;54.00;;;;;;4991593;28;20382;-64
2022/01/10 06:29:29;;;;;;;6.90;1.63;;;18.00;54.10;;;;;;4991422;28;20496;-63
2022/01/10 06:31:55;;;;;;;3.20;1.27;;;18.00;54.20;;;;;;4992070;28;20217;-68
2022/01/10 06:34:20;;;;;;;8.10;3.08;;;18.00;54.40;;;;;;4997415;28;20128;-64
2022/01/10 06:36:46;;;;;;;12.88;5.20;;;18.00;54.50;;;;;;4986512;28;20030;-67
2022/01/10 06:39:11;;;;;;;9.75;3.83;;;18.00;54.40;;;;;;4993610;28;20022;-66
2022/01/10 06:41:37;;;;;;;10.70;4.10;;;18.00;54.50;;;;;;4991313;28;20046;-67
2022/01/10 06:44:02;;;;;;;12.80;3.97;;;18.00;54.50;;;;;;4983837;28;20072;-64
2022/01/10 06:46:28;;;;;;;9.75;4.03;;;18.00;54.40;;;;;;4991474;28;20047;-66
2022/01/10 06:48:55;;;;;;;8.55;3.95;;;18.00;54.40;;;;;;4999865;28;20054;-70
2022/01/10 06:51:20;;;;;;;10.80;4.50;;;18.00;54.30;;;;;;4991672;28;20041;-69
2022/01/10 06:53:46;;;;;;;10.85;4.35;;;18.00;54.30;;;;;;4993677;28;20034;-61
2022/01/10 06:56:11;;;;;;;8.15;3.65;;;17.90;54.20;;;;;;4997216;28;20027;-68
2022/01/10 06:58:37;;;;;;;8.20;3.63;;;17.90;54.20;;;;;;4985009;28;20575;-66
2022/01/10 07:01:02;;;;;;;8.68;3.50;;;17.90;54.00;;;;;;4988644;28;20117;-66
2022/01/10 07:03:28;;;;;;;9.70;3.83;;;18.00;54.00;;;;;;4994975;28;20030;-62
2022/01/10 07:05:53;;;;;;;10.15;4.00;;;18.00;54.00;;;;;;4984576;28;20041;-63
2022/01/10 07:08:19;;;;;;;9.65;3.47;;;18.00;54.00;;;;;;4984685;28;20540;-66
2022/01/10 07:10:45;;;;;;;11.82;3.85;;;17.90;53.90;;;;;;4996602;28;20061;-67
2022/01/10 07:13:10;;;;;;;7.35;2.92;;;18.00;53.90;;;;;;4992518;28;20496;-66
2022/01/10 07:15:36;;;;;;;12.30;3.40;;;18.00;53.90;;;;;;5005107;28;20026;-66
2022/01/10 07:18:01;;;;;;;13.48;3.53;;;18.00;53.80;;;;;;4995450;28;20030;-62
2022/01/10 07:20:27;;;;;;;7.18;2.90;;;18.00;53.70;;;;;;5003785;28;20030;-66
2022/01/10 07:22:53;;;;;;;12.85;4.22;;;18.00;53.60;;;;;;4995663;28;20038;-63
2022/01/10 07:25:18;;;;;;;12.88;3.55;;;17.90;53.60;;;;;;4998335;28;20052;-67
2022/01/10 07:27:44;;;;;;;7.53;2.92;;;17.90;53.70;;;;;;4991583;28;20030;-64
2022/01/10 07:30:10;;;;;;;7.68;3.15;;;17.90;53.70;;;;;;4992691;28;20573;-63
2022/01/10 07:32:35;;;;;;;10.13;3.15;;;17.90;53.70;;;;;;4984898;28;20026;-64
2022/01/10 07:35:01;;;;;;;8.10;3.22;;;17.90;53.70;;;;;;5004817;28;20033;-64
2022/01/10 07:37:26;;;;;;;9.13;3.35;;;17.90;53.70;;;;;;4983851;28;20033;-68
2022/01/10 07:39:52;;;;;;;10.48;3.20;;;17.90;53.60;;;;;;4989710;28;20489;-68
2022/01/10 07:42:18;;;;;;;9.48;3.08;;;17.90;53.50;;;;;;4990364;28;20197;-67
2022/01/10 07:44:43;;;;;;;8.45;2.97;;;17.80;53.40;;;;;;4999160;28;20113;-66
2022/01/10 07:47:09;;;;;;;7.20;2.88;;;17.80;53.50;;;;;;4993806;28;20041;-67
2022/01/10 07:49:35;;;;;;;8.70;3.17;;;17.80;53.50;;;;;;4985737;28;20026;-66
2022/01/10 07:52:00;;;;;;;8.25;2.90;;;17.80;53.70;;;;;;4986510;28;20045;-65
2022/01/10 07:54:26;;;;;;;11.00;3.33;;;17.80;53.80;;;;;;5002750;28;20045;-61
2022/01/10 07:56:51;;;;;;;6.85;3.30;;;17.70;54.10;;;;;;4991692;28;20122;-62
2022/01/10 07:59:17;;;;;;;9.02;2.90;;;17.70;54.30;;;;;;5002424;28;20034;-63
2022/01/10 08:01:44;;;;;;;11.57;3.08;;;17.70;54.50;;;;;;4994746;28;20449;-63
2022/01/10 08:04:09;;;;;;;16.08;6.28;;;17.70;54.80;;;;;;4990527;28;20022;-67
2022/01/10 08:06:35;;;;;;;42.45;13.77;;;17.60;55.20;;;;;;4988134;28;20031;-64
2022/01/10 08:09:00;;;;;;;49.75;16.80;;;17.60;55.40;;;;;;4992163;28;20097;-68
2022/01/10 08:11:27;;;;;;;40.17;18.15;;;17.60;55.60;;;;;;4997320;28;20058;-63
2022/01/10 08:13:53;;;;;;;48.83;17.27;;;17.60;55.70;;;;;;5000907;28;20116;-64
2022/01/10 08:16:19;;;;;;;46.83;15.93;;;17.60;55.60;;;;;;4992288;28;20643;-68
2022/01/10 08:18:44;;;;;;;50.38;17.85;;;17.60;55.60;;;;;;4982464;28;20804;-65
2022/01/10 08:21:10;;;;;;;40.75;14.90;;;17.60;55.70;;;;;;4999080;28;20030;-64
2022/01/10 08:23:35;;;;;;;39.83;13.65;;;17.60;55.90;;;;;;4994819;28;20030;-68
2022/01/10 08:26:01;;;;;;;39.00;13.93;;;17.60;56.00;;;;;;4100846;28;10000580;-64
2022/01/10 08:28:26;;;;;;;38.78;13.43;;;17.60;56.10;;;;;;4973148;28;20251;-64
2022/01/10 08:30:52;;;;;;;34.63;13.95;;;17.60;56.20;;;;;;4980095;28;20038;-66
2022/01/10 08:33:18;;;;;;;31.23;12.50;;;17.60;56.30;;;;;;4975099;28;20107;-67
2022/01/10 08:35:43;;;;;;;29.33;12.05;;;17.60;56.30;;;;;;4989390;28;20428;-66
2022/01/10 08:38:09;;;;;;;31.50;12.07;;;17.60;56.30;;;;;;4971845;28;20033;-68
2022/01/10 08:40:34;;;;;;;30.98;11.35;;;17.60;56.40;;;;;;4981985;28;20113;-68
2022/01/10 08:43:06;;;;;;;31.00;11.00;;;17.60;56.30;;;;;;4980036;28;20044;-68
2022/01/10 08:45:31;;;;;;;25.65;10.55;;;17.60;56.30;;;;;;4978257;28;20027;-65
2022/01/10 08:47:57;;;;;;;30.13;11.15;;;17.60;56.20;;;;;;4985715;28;20080;-67
2022/01/10 08:50:23;;;;;;;27.73;9.43;;;17.60;56.20;;;;;;4976149;28;20038;-63
2022/01/10 08:52:49;;;;;;;28.02;9.85;;;17.60;56.10;;;;;;4975277;28;20036;-66
2022/01/10 08:55:14;;;;;;;26.90;8.85;;;17.60;56.00;;;;;;4970620;28;20027;-68
2022/01/10 08:57:40;;;;;;;23.98;8.73;;;17.60;55.90;;;;;;4987338;28;20030;-63
2022/01/10 09:00:07;;;;;;;21.10;8.52;;;17.60;55.80;;;;;;4973411;28;20113;-62
2022/01/10 09:02:33;;;;;;;21.90;8.52;;;17.60;55.80;;;;;;4977747;28;20721;-66
2022/01/10 09:04:58;;;;;;;21.40;8.63;;;17.60;55.70;;;;;;4968931;28;20034;-63
2022/01/10 09:07:24;;;;;;;18.23;8.10;;;17.60;55.50;;;;;;4976089;28;20031;-63
2022/01/10 09:09:50;;;;;;;15.77;7.57;;;17.60;56.10;;;;;;4976488;28;20383;-67
2022/01/10 09:12:15;;;;;;;18.85;7.45;;;17.60;55.40;;;;;;4973037;28;20189;-66
2022/01/10 09:14:41;;;;;;;16.08;6.72;;;17.60;55.30;;;;;;4986052;28;20034;-68
2022/01/10 09:17:06;;;;;;;25.13;6.97;;;17.60;55.20;;;;;;4980412;28;20038;-64
2022/01/10 09:19:31;;;;;;;18.05;7.68;;;17.70;55.10;;;;;;4973218;28;20035;-68
2022/01/10 09:21:57;;;;;;;19.88;9.00;;;17.70;55.10;;;;;;4979070;28;20429;-68
2022/01/10 09:24:22;;;;;;;21.58;8.98;;;17.80;55.20;;;;;;4978192;28;20034;-66
2022/01/10 09:26:48;;;;;;;23.17;8.95;;;17.90;55.00;;;;;;4987951;28;20030;-69
2022/01/10 09:29:13;;;;;;;18.40;9.02;;;17.90;54.80;;;;;;4982138;28;20030;-65
2022/01/10 09:31:39;;;;;;;22.45;8.68;;;18.00;54.70;;;;;;4977322;28;20051;-68
2022/01/10 09:34:05;;;;;;;24.73;9.05;;;18.00;54.70;;;;;;4977940;28;20023;-68
2022/01/10 09:36:31;;;;;;;19.17;8.68;;;18.00;54.70;;;;;;4969100;28;20034;-64
2022/01/10 09:38:57;;;;;;;18.92;8.45;;;18.00;54.70;;;;;;4974664;28;20031;-68
2022/01/10 09:41:23;;;;;;;19.77;8.65;;;18.00;54.60;;;;;;4974826;28;20088;-68
2022/01/10 09:43:56;;;;;;;17.02;8.23;;;18.00;54.60;;;;;;4982364;28;20220;-68
2022/01/10 09:46:21;;;;;;;18.25;8.45;;;18.10;54.60;;;;;;4979525;28;20042;-68
2022/01/10 09:48:47;;;;;;;16.13;7.18;;;18.10;54.40;;;;;;4972405;28;20035;-68
2022/01/10 09:51:13;;;;;;;15.55;7.47;;;18.10;54.40;;;;;;4980631;28;20042;-69
2022/01/10 09:53:38;;;;;;;18.10;7.85;;;18.10;54.20;;;;;;4983021;28;20110;-68
2022/01/10 09:56:04;;;;;;;14.52;6.55;;;18.20;54.30;;;;;;4977285;28;20118;-69
2022/01/10 09:58:29;;;;;;;13.52;6.43;;;18.20;54.20;;;;;;4988967;28;20046;-65
2022/01/10 10:00:59;;;;;;;14.18;6.63;;;18.20;54.20;;;;;;4983487;28;20445;-64
2022/01/10 10:03:24;;;;;;;18.48;6.45;;;18.20;54.20;;;;;;4976207;28;20138;-64
2022/01/10 10:05:54;;;;;;;15.07;6.28;;;18.20;54.10;;;;;;4983301;28;20517;-69
2022/01/10 10:08:20;;;;;;;13.25;6.03;;;18.20;54.20;;;;;;4978686;28;20113;-68
2022/01/10 10:10:46;;;;;;;15.82;6.43;;;18.20;54.20;;;;;;4981994;28;20057;-68
2022/01/10 10:13:14;;;;;;;11.05;5.32;;;18.20;54.30;;;;;;4983138;28;20616;-69
2022/01/10 10:15:40;;;;;;;10.80;6.05;;;18.20;54.30;;;;;;4978902;28;20054;-69
2022/01/10 10:18:08;;;;;;;16.52;5.45;;;18.20;54.30;;;;;;4978747;28;20026;-64
2022/01/10 10:20:34;;;;;;;11.82;5.38;;;18.20;54.20;;;;;;4967194;28;20035;-65
2022/01/10 10:22:59;;;;;;;10.02;4.47;;;18.20;54.20;;;;;;4980779;28;20050;-68
2022/01/10 10:25:25;;;;;;;9.82;5.35;;;18.20;54.20;;;;;;4971960;28;20746;-68
2022/01/10 10:27:50;;;;;;;9.48;5.15;;;18.10;54.10;;;;;;4976242;28;20126;-68
2022/01/10 10:30:18;;;;;;;10.10;4.57;;;18.10;54.80;;;;;;4977013;28;20111;-67
2022/01/10 10:32:43;;;;;;;11.85;5.03;;;18.10;54.20;;;;;;4974841;28;20041;-67
2022/01/10 10:35:09;;;;;;;10.32;5.45;;;18.10;54.20;;;;;;4979986;28;20027;-68
2022/01/10 10:37:40;;;;;;;8.98;4.30;;;18.00;54.10;;;;;;4976449;28;20176;-66
2022/01/10 10:40:09;;;;;;;9.93;4.95;;;18.00;54.10;;;;;;4980411;28;20031;-68
2022/01/10 10:42:34;;;;;;;11.25;4.45;;;18.00;54.10;;;;;;4967228;28;20030;-66
2022/01/10 10:45:04;;;;;;;10.93;4.80;;;18.00;54.10;;;;;;4982581;28;20053;-67
2022/01/10 10:47:29;;;;;;;8.27;4.63;;;18.00;54.10;;;;;;4978659;28;20110;-68
2022/01/10 10:49:58;;;;;;;7.50;4.03;;;18.00;54.10;;;;;;4968686;28;20074;-68
2022/01/10 10:52:29;;;;;;;7.05;4.35;;;18.00;54.10;;;;;;4969346;28;20047;-69
2022/01/10 10:54:55;;;;;;;7.82;3.67;;;17.90;54.10;;;;;;4983771;28;20038;-68
2022/01/10 10:57:21;;;;;;;7.80;3.63;;;17.90;54.10;;;;;;4973718;28;20445;-68
2022/01/10 10:59:47;;;;;;;7.82;3.88;;;17.90;54.10;;;;;;4980589;28;20046;-68
2022/01/10 11:02:12;;;;;;;9.27;3.58;;;17.90;54.10;;;;;;4970279;28;20027;-68
2022/01/10 11:04:39;;;;;;;8.65;4.03;;;17.90;54.10;;;;;;4982790;28;20101;-66
2022/01/10 11:07:05;;;;;;;8.35;3.72;;;17.90;54.10;;;;;;4977325;28;20121;-68
2022/01/10 11:09:30;;;;;;;7.50;4.10;;;17.90;54.10;;;;;;4972396;28;20113;-69
2022/01/10 11:11:56;;;;;;;7.45;3.65;;;17.90;54.10;;;;;;4979894;28;20065;-68
2022/01/10 11:14:24;;;;;;;7.60;3.70;;;17.90;54.20;;;;;;4973404;28;20026;-63
2022/01/10 11:16:52;;;;;;;7.10;3.22;;;17.90;54.30;;;;;;4973397;28;20042;-68
2022/01/10 11:19:21;;;;;;;6.03;3.45;;;17.90;54.40;;;;;;4971388;28;20042;-68
2022/01/10 11:21:52;;;;;;;8.38;3.85;;;17.80;54.40;;;;;;4976222;28;20050;-66
2022/01/10 11:24:41;;;;;;;7.78;3.22;;;17.80;54.60;;;;;;4977291;28;20754;-67
2022/01/10 11:27:34;;;;;;;6.75;3.15;;;17.80;54.70;;;;;;4974962;28;20042;-65
2022/01/10 11:30:22;;;;;;;6.10;3.00;;;17.80;54.80;;;;;;4950197;28;20045;-68
2022/01/10 11:33:07;;;;;;;6.15;3.13;;;17.70;54.90;;;;;;4970807;28;20580;-68
2022/01/10 11:35:41;;;;;;;5.90;3.30;;;17.70;54.90;;;;;;4963992;28;20035;-64
2022/01/10 11:38:22;;;;;;;6.03;3.47;;;17.70;55.00;;;;;;4982166;28;20031;-63
2022/01/10 11:40:50;;;;;;;5.53;3.05;;;17.70;55.10;;;;;;4965563;28;20038;-68
2022/01/10 11:43:41;;;;;;;8.02;3.25;;;17.70;55.10;;;;;;4973241;28;20410;-67
2022/01/10 11:46:20;;;;;;;6.55;3.13;;;17.70;55.20;;;;;;4979324;28;20030;-63
2022/01/10 11:49:08;;;;;;;6.93;2.83;;;17.70;55.20;;;;;;4966686;28;20286;-65
2022/01/10 11:51:37;;;;;;;7.88;3.42;;;17.70;55.20;;;;;;4974955;28;20123;-64
2022/01/10 11:54:22;;;;;;;5.00;2.65;;;17.70;55.20;;;;;;4977252;28;20038;-68
2022/01/10 11:56:48;;;;;;;5.90;3.28;;;17.70;55.30;;;;;;4974612;28;20038;-64
2022/01/10 11:59:16;;;;;;;5.80;3.28;;;17.70;55.30;;;;;;4987119;28;20037;-65
2022/01/10 12:02:10;;;;;;;8.00;3.00;;;17.70;55.30;;;;;;4980635;28;20105;-63
2022/01/10 12:04:40;;;;;;;5.10;2.88;;;17.70;55.30;;;;;;4967137;28;20027;-63
2022/01/10 12:07:06;;;;;;;6.95;3.13;;;17.70;55.50;;;;;;4974926;28;20065;-68
2022/01/10 12:09:32;;;;;;;4.32;2.80;;;17.70;55.70;;;;;;4974566;28;20043;-61
2022/01/10 12:11:59;;;;;;;4.93;3.25;;;17.70;55.80;;;;;;4979845;28;20406;-63
2022/01/10 12:14:25;;;;;;;5.15;2.92;;;17.70;55.90;;;;;;4970538;28;20029;-63
2022/01/10 12:16:51;;;;;;;7.05;3.72;;;17.70;55.80;;;;;;4974302;28;20047;-63
2022/01/10 12:19:17;;;;;;;5.20;2.70;;;17.70;55.80;;;;;;4987619;28;20038;-63
2022/01/10 12:21:42;;;;;;;6.55;3.20;;;17.70;55.80;;;;;;4968533;28;20034;-67
2022/01/10 12:24:09;;;;;;;6.97;3.40;;;17.70;55.80;;;;;;4980682;28;20382;-63
2022/01/10 12:26:35;;;;;;;6.10;2.83;;;17.70;55.90;;;;;;4985551;28;20038;-67
2022/01/10 12:29:01;;;;;;;5.03;2.92;;;17.70;55.90;;;;;;4969751;28;20023;-63
2022/01/10 12:31:28;;;;;;;5.95;2.83;;;17.70;55.90;;;;;;4973596;28;20690;-63
2022/01/10 12:33:54;;;;;;;5.32;2.92;;;17.70;56.00;;;;;;4973562;28;20035;-65
2022/01/10 12:36:19;;;;;;;3.95;2.53;;;17.70;56.00;;;;;;4978437;28;20035;-66
2022/01/10 12:38:53;;;;;;;8.50;3.20;;;17.70;56.00;;;;;;4969688;28;20047;-64
2022/01/10 12:41:20;;;;;;;4.32;2.83;;;17.70;56.00;;;;;;4978895;28;20240;-67
2022/01/10 12:43:49;;;;;;;5.25;2.83;;;17.80;56.00;;;;;;4969309;28;20038;-64
2022/01/10 12:46:17;;;;;;;5.60;2.63;;;17.80;55.80;;;;;;4968568;28;20058;-64
2022/01/10 12:48:46;;;;;;;8.48;3.20;;;17.80;55.60;;;;;;4975764;28;20045;-68
2022/01/10 12:51:12;;;;;;;5.55;3.03;;;17.80;55.50;;;;;;4964252;28;20047;-63